createdAt,value
2023-04-10T00:01:15.121Z,6.12
2023-04-10T00:03:43.327Z,6.03
2023-04-10T00:06:11.316Z,5.97
2023-04-10T00:08:39.245Z,5.92
2023-04-10T00:11:08.643Z,5.98
2023-04-10T00:13:36.585Z,5.99
2023-04-10T00:16:04.794Z,5.92
2023-04-10T00:18:32.819Z,5.88
2023-04-10T00:21:00.734Z,5.95
2023-04-10T00:23:28.645Z,5.99
2023-04-10T00:25:56.488Z,5.91
2023-04-10T00:28:25.784Z,5.81
2023-04-10T00:30:54.608Z,5.74
2023-04-10T00:33:22.621Z,5.62
2023-04-10T00:35:51.068Z,5.60
2023-04-10T00:38:18.941Z,5.52
2023-04-10T00:40:46.803Z,5.53
2023-04-10T00:43:14.783Z,5.51
2023-04-10T00:45:44.755Z,5.39
2023-04-10T00:48:13.303Z,5.31
2023-04-10T00:50:43.137Z,5.31
2023-04-10T00:53:11.168Z,5.33
2023-04-10T00:55:39.354Z,5.29
2023-04-10T00:58:07.555Z,5.21
2023-04-10T01:00:35.538Z,5.32
2023-04-10T01:03:05.456Z,5.33
2023-04-10T01:05:40.470Z,5.34
2023-04-10T01:08:18.299Z,5.29
2023-04-10T01:10:54.144Z,5.07
2023-04-10T01:13:28.566Z,5.21
2023-04-10T01:15:59.203Z,5.15
2023-04-10T01:18:35.987Z,5.11
2023-04-10T01:21:08.078Z,5.12
2023-04-10T01:23:55.361Z,5.11
2023-04-10T01:26:38.083Z,5.13
2023-04-10T01:29:10.359Z,5.17
2023-04-10T01:31:42.878Z,5.08
2023-04-10T01:34:16.654Z,5.03
2023-04-10T01:36:50.582Z,4.97
2023-04-10T01:39:21.337Z,4.99
2023-04-10T01:41:52.984Z,4.99
2023-04-10T01:44:29.133Z,4.87
2023-04-10T01:46:58.602Z,4.81
2023-04-10T01:49:29.167Z,4.74
2023-04-10T01:52:03.965Z,4.81
2023-04-10T01:54:33.800Z,4.86
2023-04-10T01:57:04.896Z,4.99
2023-04-10T01:59:42.445Z,4.98
2023-04-10T02:02:11.743Z,4.80
2023-04-10T02:04:40.470Z,4.75
2023-04-10T02:07:14.910Z,4.73
2023-04-10T02:09:48.848Z,4.66
2023-04-10T02:12:21.391Z,4.60
2023-04-10T02:14:54.058Z,4.56
2023-04-10T02:17:29.459Z,4.52
2023-04-10T02:19:59.212Z,4.49
2023-04-10T02:22:27.656Z,4.51
2023-04-10T02:24:55.650Z,4.58
2023-04-10T02:27:31.026Z,4.60
2023-04-10T02:30:03.200Z,4.76
2023-04-10T02:32:33.276Z,4.73
2023-04-10T02:35:01.878Z,4.59
2023-04-10T02:37:31.078Z,4.41
2023-04-10T02:40:01.399Z,4.37
2023-04-10T02:42:35.799Z,4.33
2023-04-10T02:45:06.444Z,4.26
2023-04-10T02:47:39.521Z,4.25
2023-04-10T02:50:08.617Z,4.25
2023-04-10T02:52:39.214Z,4.23
2023-04-10T02:55:08.064Z,4.25
2023-04-10T02:57:38.322Z,4.32
2023-04-10T03:00:09.394Z,4.28
2023-04-10T03:02:57.415Z,4.40
2023-04-10T03:05:28.920Z,4.32
2023-04-10T03:07:56.873Z,4.21
2023-04-10T03:10:25.191Z,4.21
2023-04-10T03:12:53.102Z,4.25
2023-04-10T03:15:22.343Z,4.22
2023-04-10T03:17:50.568Z,4.12
2023-04-10T03:20:18.525Z,3.91
2023-04-10T03:22:46.400Z,3.83
2023-04-10T03:25:14.412Z,3.96
2023-04-10T03:27:42.268Z,3.93
2023-04-10T03:30:10.895Z,3.88
2023-04-10T03:32:43.772Z,3.84
2023-04-10T03:35:11.867Z,3.89
2023-04-10T03:37:42.150Z,3.97
2023-04-10T03:40:11.094Z,3.93
2023-04-10T03:42:39.336Z,3.88
2023-04-10T03:45:08.054Z,3.86
2023-04-10T03:47:36.277Z,3.89
2023-04-10T03:50:09.062Z,4.09
2023-04-10T03:52:45.832Z,4.07
2023-04-10T03:55:19.063Z,3.88
2023-04-10T03:57:47.530Z,3.75
2023-04-10T04:00:17.136Z,3.77
2023-04-10T04:02:48.460Z,3.81
2023-04-10T04:05:28.486Z,3.73
2023-04-10T04:08:15.526Z,3.75
2023-04-10T04:11:11.450Z,3.69
2023-04-10T04:13:53.063Z,3.68
2023-04-10T04:16:50.907Z,3.68
2023-04-10T04:19:40.123Z,3.62
2023-04-10T04:22:29.606Z,3.64
2023-04-10T04:25:24.006Z,3.58
2023-04-10T04:28:19.379Z,3.60
2023-04-10T04:30:58.432Z,3.55
2023-04-10T04:33:46.633Z,3.46
2023-04-10T04:36:46.612Z,3.62
2023-04-10T04:39:26.846Z,3.64
2023-04-10T04:42:14.946Z,3.56
2023-04-10T04:45:01.346Z,3.67
2023-04-10T04:47:45.909Z,3.69
2023-04-10T04:50:27.009Z,3.66
2023-04-10T04:52:54.876Z,3.67
2023-04-10T04:55:46.973Z,3.70
2023-04-10T04:58:47.132Z,3.69
2023-04-10T05:01:35.412Z,3.78
2023-04-10T05:04:21.922Z,3.93
2023-04-10T05:07:16.068Z,3.86
2023-04-10T05:09:53.217Z,3.81
2023-04-10T05:12:22.436Z,3.77
2023-04-10T05:14:58.039Z,3.73
2023-04-10T05:17:38.993Z,3.78
2023-04-10T05:20:27.639Z,3.88
2023-04-10T05:23:14.814Z,4.16
2023-04-10T05:25:52.439Z,4.19
2023-04-10T05:29:00.325Z,4.36
2023-04-10T05:31:37.795Z,4.45
2023-04-10T05:34:17.021Z,4.40
2023-04-10T05:37:20.259Z,4.56
2023-04-10T05:40:11.520Z,4.71
2023-04-10T05:43:11.442Z,4.84
2023-04-10T05:46:07.999Z,4.92
2023-04-10T05:48:49.936Z,6.00
2023-04-10T05:51:24.686Z,5.25
2023-04-10T05:54:12.584Z,5.39
2023-04-10T05:57:01.644Z,5.42
2023-04-10T05:59:44.886Z,5.66
2023-04-10T06:02:34.174Z,5.71
2023-04-10T06:05:02.332Z,5.79
2023-04-10T06:07:34.210Z,5.89
2023-04-10T06:10:02.381Z,6.02
2023-04-10T06:12:32.541Z,6.05
2023-04-10T06:15:01.737Z,6.24
2023-04-10T06:17:35.408Z,6.24
2023-04-10T06:20:04.669Z,6.29
2023-04-10T06:22:32.652Z,6.42
2023-04-10T06:25:00.585Z,6.50
2023-04-10T06:27:29.161Z,6.53
2023-04-10T06:29:57.513Z,6.64
2023-04-10T06:32:26.101Z,6.73
2023-04-10T06:34:56.449Z,6.77
2023-04-10T06:37:29.166Z,6.84
2023-04-10T06:40:04.815Z,6.93
2023-04-10T06:42:32.740Z,7.06
2023-04-10T06:45:08.582Z,7.12
2023-04-10T06:47:36.677Z,7.14
2023-04-10T06:50:06.710Z,7.34
2023-04-10T06:52:34.571Z,7.38
2023-04-10T06:55:02.465Z,7.51
2023-04-10T06:57:30.420Z,7.57
2023-04-10T06:59:58.476Z,7.78
2023-04-10T07:02:26.538Z,7.92
2023-04-10T07:04:54.660Z,7.90
2023-04-10T07:07:24.008Z,7.84
2023-04-10T07:09:51.894Z,7.93
2023-04-10T07:12:19.801Z,8.04
2023-04-10T07:14:47.662Z,8.09
2023-04-10T07:17:15.503Z,8.12
2023-04-10T07:19:43.403Z,8.28
2023-04-10T07:22:11.497Z,8.24
2023-04-10T07:24:40.849Z,8.36
2023-04-10T07:27:08.917Z,8.29
2023-04-10T07:29:37.035Z,8.31
2023-04-10T07:32:05.495Z,8.42
2023-04-10T07:34:33.549Z,8.74
2023-04-10T07:37:01.458Z,8.79
2023-04-10T07:39:29.368Z,8.86
2023-04-10T07:41:58.614Z,8.90
2023-04-10T07:44:27.363Z,8.88
2023-04-10T07:46:56.060Z,8.90
2023-04-10T07:49:24.324Z,8.98
2023-04-10T07:51:52.462Z,9.00
2023-04-10T07:54:20.644Z,9.04
2023-04-10T07:56:48.641Z,9.24
2023-04-10T07:59:17.959Z,9.38
2023-04-10T08:01:45.909Z,9.42
2023-04-10T08:04:13.961Z,9.46
2023-04-10T08:06:57.099Z,9.61
2023-04-10T08:13:01.159Z,9.84
2023-04-10T08:28:02.705Z,10.31
2023-04-10T08:30:35.630Z,10.39
2023-04-10T08:33:03.982Z,10.58
2023-04-10T08:35:31.979Z,10.67
2023-04-10T08:38:12.851Z,10.70
2023-04-10T08:40:42.715Z,10.89
2023-04-10T08:43:10.651Z,10.87
2023-04-10T08:45:43.960Z,10.87
2023-04-10T08:48:13.158Z,11.10
2023-04-10T08:50:44.000Z,11.12
2023-04-10T08:53:14.023Z,11.27
2023-04-10T08:55:43.169Z,11.42
2023-04-10T08:58:13.646Z,11.44
2023-04-10T09:00:43.090Z,11.50
2023-04-10T09:03:14.210Z,11.56
2023-04-10T09:05:42.391Z,11.82
2023-04-10T09:08:10.852Z,11.63
2023-04-10T09:10:39.271Z,11.78
2023-04-10T09:13:07.565Z,11.98
2023-04-10T09:16:01.166Z,11.79
2023-04-10T09:18:43.763Z,11.97
2023-04-10T09:21:13.137Z,12.18
2023-04-10T09:23:42.663Z,12.19
2023-04-10T09:26:30.542Z,12.35
2023-04-10T09:29:03.099Z,12.46
2023-04-10T09:31:34.665Z,12.36
2023-04-10T09:34:14.072Z,12.36
2023-04-10T09:36:42.819Z,12.45
2023-04-10T09:39:12.013Z,12.56
2023-04-10T09:41:57.946Z,12.42
2023-04-10T09:44:33.947Z,12.77
2023-04-10T09:47:17.796Z,12.87
2023-04-10T09:49:48.301Z,12.74
2023-04-10T09:52:20.801Z,13.01
2023-04-10T09:54:52.077Z,12.85
2023-04-10T09:57:21.807Z,12.80
2023-04-10T09:59:51.830Z,13.03
2023-04-10T10:02:22.466Z,13.38
2023-04-10T10:04:51.235Z,13.43
2023-04-10T10:07:21.140Z,13.61
2023-04-10T10:09:50.321Z,13.83
2023-04-10T10:12:23.351Z,13.92
2023-04-10T10:14:58.456Z,14.60
2023-04-10T10:17:32.837Z,14.85
2023-04-10T10:20:05.672Z,15.08
2023-04-10T10:22:33.905Z,15.28
2023-04-10T10:25:03.507Z,15.27
2023-04-10T10:27:32.895Z,15.25
2023-04-10T10:30:08.543Z,15.41
2023-04-10T10:32:46.827Z,15.38
2023-04-10T10:35:14.940Z,15.74
2023-04-10T10:37:45.687Z,15.77
2023-04-10T10:40:18.812Z,16.01
2023-04-10T10:42:51.760Z,15.95
2023-04-10T10:45:25.044Z,16.09
2023-04-10T10:47:55.867Z,16.04
2023-04-10T10:50:24.970Z,15.86
2023-04-10T10:52:56.039Z,15.99
2023-04-10T10:55:35.728Z,16.54
2023-04-10T10:58:05.416Z,16.30
2023-04-10T11:01:10.053Z,16.22
2023-04-10T11:03:40.769Z,16.54
2023-04-10T11:06:09.873Z,16.85
2023-04-10T11:08:48.668Z,17.28
2023-04-10T11:11:18.563Z,17.17
2023-04-10T11:14:21.290Z,17.65
2023-04-10T11:16:49.562Z,18.19
2023-04-10T11:19:22.819Z,18.40
2023-04-10T11:22:05.231Z,17.93
2023-04-10T11:24:59.525Z,17.58
2023-04-10T11:27:54.404Z,19.34
2023-04-10T11:30:34.609Z,19.92
2023-04-10T11:33:04.760Z,19.68
2023-04-10T11:35:34.355Z,19.22
2023-04-10T11:38:16.153Z,17.76
2023-04-10T11:40:58.181Z,17.26
2023-04-10T11:43:26.520Z,17.02
2023-04-10T11:46:01.513Z,17.11
2023-04-10T11:48:29.947Z,17.08
2023-04-10T11:51:01.744Z,17.31
2023-04-10T11:53:30.363Z,17.23
2023-04-10T11:55:58.689Z,17.29
2023-04-10T11:58:28.777Z,17.33
2023-04-10T12:00:59.203Z,16.61
2023-04-10T12:03:43.338Z,17.63
2023-04-10T12:06:14.438Z,18.53
2023-04-10T12:08:47.625Z,20.03
2023-04-10T12:11:20.266Z,20.76
2023-04-10T12:13:49.126Z,21.93
2023-04-10T12:16:17.324Z,22.08
2023-04-10T12:18:45.771Z,22.56
2023-04-10T12:21:15.593Z,22.35
2023-04-10T12:23:43.842Z,22.04
2023-04-10T12:26:14.969Z,22.85
2023-04-10T12:28:50.357Z,23.56
2023-04-10T12:31:18.563Z,23.58
2023-04-10T12:33:46.999Z,24.05
2023-04-10T12:36:23.785Z,23.17
2023-04-10T12:38:51.802Z,24.11
2023-04-10T12:41:23.335Z,23.14
2023-04-10T12:43:52.938Z,23.58
2023-04-10T12:46:26.471Z,21.27
2023-04-10T12:48:55.104Z,22.71
2023-04-10T12:51:48.914Z,22.09
2023-04-10T12:54:30.523Z,22.46
2023-04-10T12:56:59.041Z,22.28
2023-04-10T12:59:27.862Z,23.66
2023-04-10T13:01:56.388Z,23.35
2023-04-10T13:04:24.603Z,23.49
2023-04-10T13:06:54.010Z,24.17
2023-04-10T13:09:22.337Z,23.20
2023-04-10T13:11:52.387Z,23.61
2023-04-10T13:14:20.295Z,22.20
2023-04-10T13:16:49.475Z,21.94
2023-04-10T13:19:20.116Z,21.37
2023-04-10T13:21:48.050Z,21.18
2023-04-10T13:24:17.446Z,20.78
2023-04-10T13:26:45.556Z,20.54
2023-04-10T13:29:13.503Z,20.98
2023-04-10T13:31:41.477Z,20.71
2023-04-10T13:34:09.588Z,20.72
2023-04-10T13:36:37.781Z,21.06
2023-04-10T13:39:05.881Z,20.63
2023-04-10T13:41:35.347Z,20.40
2023-04-10T13:44:03.288Z,20.10
2023-04-10T13:46:31.316Z,19.77
2023-04-10T13:48:59.712Z,19.05
2023-04-10T13:51:29.641Z,19.62
2023-04-10T13:53:58.777Z,20.06
2023-04-10T13:56:26.846Z,20.06
2023-04-10T13:58:58.664Z,20.08
2023-04-10T14:01:26.713Z,20.24
2023-04-10T14:03:55.099Z,20.43
2023-04-10T14:06:23.226Z,20.38
2023-04-10T14:08:51.323Z,19.31
2023-04-10T14:11:19.260Z,19.10
2023-04-10T14:13:47.295Z,19.05
2023-04-10T14:16:16.711Z,18.79
2023-04-10T14:18:44.636Z,18.09
2023-04-10T14:21:12.669Z,18.20
2023-04-10T14:23:41.772Z,17.98
2023-04-10T14:26:09.811Z,18.28
2023-04-10T14:28:37.826Z,18.28
2023-04-10T14:31:06.403Z,18.32
2023-04-10T14:33:36.056Z,18.09
2023-04-10T14:36:04.302Z,17.87
2023-04-10T14:38:32.249Z,18.08
2023-04-10T14:41:00.148Z,18.53
2023-04-10T14:43:28.406Z,18.60
2023-04-10T14:45:56.411Z,18.84
2023-04-10T14:48:24.455Z,19.06
2023-04-10T14:50:54.998Z,19.34
2023-04-10T14:53:23.162Z,19.05
2023-04-10T14:55:51.076Z,18.92
2023-04-10T14:58:19.063Z,18.71
2023-04-10T15:00:47.004Z,18.20
2023-04-10T15:03:14.976Z,18.65
2023-04-10T15:05:42.952Z,18.96
2023-04-10T15:08:12.645Z,19.32
2023-04-10T15:10:42.101Z,19.34
2023-04-10T15:13:10.026Z,19.13
2023-04-10T15:15:37.926Z,19.15
2023-04-10T15:18:05.963Z,19.31
2023-04-10T15:20:33.870Z,19.24
2023-04-10T15:23:02.559Z,19.22
2023-04-10T15:25:33.316Z,19.21
2023-04-10T15:28:02.120Z,19.56
2023-04-10T15:30:31.433Z,18.94
2023-04-10T15:32:59.566Z,19.30
2023-04-10T15:35:28.657Z,19.07
2023-04-10T15:37:56.606Z,18.81
2023-04-10T15:40:24.579Z,18.67
2023-04-10T15:42:53.856Z,19.05
2023-04-10T15:45:21.952Z,18.53
2023-04-10T15:47:50.016Z,18.38
2023-04-10T15:50:18.111Z,18.59
2023-04-10T15:52:46.136Z,18.92
2023-04-10T15:55:14.352Z,18.67
2023-04-10T15:57:42.403Z,18.96
2023-04-10T16:00:13.288Z,19.13
2023-04-10T16:02:41.543Z,18.96
2023-04-10T16:05:10.107Z,18.91
2023-04-10T16:07:40.627Z,18.71
2023-04-10T16:10:10.108Z,18.83
2023-04-10T16:12:38.193Z,18.73
2023-04-10T16:15:08.097Z,18.76
2023-04-10T16:17:37.667Z,18.50
2023-04-10T16:20:06.752Z,18.54
2023-04-10T16:22:35.883Z,18.28
2023-04-10T16:27:36.791Z,17.92
2023-04-10T16:30:06.357Z,18.02
2023-04-10T16:32:34.758Z,17.97
2023-04-10T16:35:04.423Z,17.97
2023-04-10T16:37:32.557Z,17.72
2023-04-10T16:40:00.643Z,17.61
2023-04-10T16:42:28.897Z,17.36
2023-04-10T16:44:58.141Z,17.50
2023-04-10T16:47:26.306Z,17.55
2023-04-10T16:49:54.170Z,17.22
2023-04-10T16:52:23.639Z,17.21
2023-04-10T16:54:51.636Z,17.06
2023-04-10T16:57:19.680Z,17.12
2023-04-10T16:59:47.608Z,17.18
2023-04-10T17:02:15.587Z,17.02
2023-04-10T17:04:43.756Z,16.79
2023-04-10T17:07:11.909Z,17.19
2023-04-10T17:09:41.190Z,16.90
2023-04-10T17:12:09.142Z,16.81
2023-04-10T17:14:37.214Z,16.55
2023-04-10T17:17:06.346Z,16.46
2023-04-10T17:19:34.383Z,16.58
2023-04-10T17:22:02.392Z,16.52
2023-04-10T17:24:31.385Z,16.73
2023-04-10T17:27:02.128Z,16.69
2023-04-10T17:29:30.133Z,16.52
2023-04-10T17:31:58.162Z,16.27
2023-04-10T17:34:26.452Z,16.18
2023-04-10T17:36:54.453Z,15.81
2023-04-10T17:39:22.387Z,15.76
2023-04-10T17:41:50.451Z,15.58
2023-04-10T17:44:20.543Z,15.44
2023-04-10T17:46:48.593Z,15.33
2023-04-10T17:49:16.660Z,15.44
2023-04-10T17:51:44.703Z,15.27
2023-04-10T17:54:12.806Z,15.17
2023-04-10T17:56:40.788Z,15.12
2023-04-10T17:59:09.050Z,14.91
2023-04-10T18:01:38.560Z,14.82
2023-04-10T18:04:08.690Z,14.87
2023-04-10T18:06:36.783Z,14.91
2023-04-10T18:09:05.020Z,14.91
2023-04-10T18:11:32.942Z,14.75
2023-04-10T18:14:00.909Z,14.58
2023-04-10T18:16:29.757Z,14.56
2023-04-10T18:18:59.121Z,14.42
2023-04-10T18:21:27.225Z,14.33
2023-04-10T18:23:55.427Z,14.40
2023-04-10T18:26:24.354Z,14.28
2023-04-10T18:28:52.405Z,14.22
2023-04-10T18:31:20.510Z,14.12
2023-04-10T18:33:59.849Z,14.11
2023-04-10T18:36:33.437Z,14.00
2023-04-10T18:39:01.436Z,13.96
2023-04-10T18:41:29.437Z,13.91
2023-04-10T18:44:05.099Z,13.86
2023-04-10T18:46:33.956Z,13.92
2023-04-10T18:49:03.075Z,13.92
2023-04-10T18:51:33.449Z,13.80
2023-04-10T18:54:04.550Z,13.70
2023-04-10T18:56:35.371Z,13.77
2023-04-10T18:59:03.304Z,13.72
2023-04-10T19:01:31.283Z,13.73
2023-04-10T19:03:59.717Z,13.76
2023-04-10T19:06:28.185Z,13.64
2023-04-10T19:08:56.764Z,13.63
2023-04-10T19:11:26.227Z,13.60
2023-04-10T19:13:54.853Z,13.54
2023-04-10T19:16:23.456Z,13.53
2023-04-10T19:18:51.654Z,13.46
2023-04-10T19:21:19.915Z,13.42
2023-04-10T19:23:48.200Z,13.47
2023-04-10T19:26:16.275Z,13.40
2023-04-10T19:28:45.616Z,13.35
2023-04-10T19:31:13.877Z,13.30
2023-04-10T19:33:42.171Z,13.33
2023-04-10T19:36:10.663Z,13.36
2023-04-10T19:38:40.742Z,13.31
2023-04-10T19:41:15.195Z,13.16
2023-04-10T19:43:43.355Z,13.12
2023-04-10T19:46:18.549Z,13.15
2023-04-10T19:48:46.948Z,13.16
2023-04-10T19:51:15.144Z,13.02
2023-04-10T19:53:43.293Z,12.99
2023-04-10T19:56:11.363Z,12.92
2023-04-10T19:58:42.118Z,13.02
2023-04-10T20:01:12.326Z,13.07
2023-04-10T20:03:41.769Z,12.98
2023-04-10T20:06:10.240Z,12.93
2023-04-10T20:08:38.523Z,12.88
2023-04-10T20:11:07.318Z,12.83
2023-04-10T20:13:39.242Z,12.90
2023-04-10T20:16:08.613Z,12.86
2023-04-10T20:18:39.286Z,12.89
2023-04-10T20:21:09.219Z,12.85
2023-04-10T20:23:38.678Z,12.78
2023-04-10T20:26:07.126Z,12.71
2023-04-10T20:28:35.291Z,12.66
2023-04-10T20:31:03.339Z,12.73
2023-04-10T20:33:31.380Z,12.68
2023-04-10T20:35:59.386Z,12.77
2023-04-10T20:38:28.818Z,12.78
2023-04-10T20:40:56.701Z,12.76
2023-04-10T20:43:24.592Z,12.76
2023-04-10T20:45:52.491Z,12.77
2023-04-10T20:48:20.390Z,12.90
2023-04-10T20:50:49.648Z,12.85
2023-04-10T20:53:22.400Z,12.83
2023-04-10T20:55:54.115Z,12.91
2023-04-10T20:58:22.525Z,12.96
2023-04-10T21:00:52.407Z,13.00
2023-04-10T21:03:29.711Z,12.91
2023-04-10T21:05:59.662Z,12.92
2023-04-10T21:08:27.639Z,13.01
2023-04-10T21:10:59.282Z,13.02
2023-04-10T21:13:27.260Z,13.08
2023-04-10T21:15:55.194Z,12.98
2023-04-10T21:18:23.108Z,12.95
2023-04-10T21:20:53.327Z,12.93
2023-04-10T21:23:24.004Z,12.93
2023-04-10T21:25:53.520Z,12.82
2023-04-10T21:28:23.094Z,12.77
2023-04-10T21:30:51.026Z,12.84
2023-04-10T21:33:18.908Z,13.01
2023-04-10T21:35:46.843Z,13.00
2023-04-10T21:38:14.913Z,12.88
2023-04-10T21:40:43.691Z,12.99
2023-04-10T21:43:11.607Z,12.89
2023-04-10T21:45:40.855Z,12.98
2023-04-10T21:48:08.874Z,12.86
2023-04-10T21:50:36.772Z,12.76
2023-04-10T21:53:04.679Z,12.70
2023-04-10T21:55:32.660Z,12.65
2023-04-10T21:58:00.692Z,12.70
2023-04-10T22:00:29.213Z,12.49
2023-04-10T22:02:58.577Z,12.45
2023-04-10T22:05:27.466Z,12.60
2023-04-10T22:07:56.760Z,12.51
2023-04-10T22:10:24.613Z,12.44
2023-04-10T22:12:52.503Z,12.45
2023-04-10T22:15:20.501Z,12.56
2023-04-10T22:17:48.488Z,12.49
2023-04-10T22:20:17.974Z,12.31
2023-04-10T22:22:45.823Z,12.26
2023-04-10T22:25:13.694Z,12.45
2023-04-10T22:27:41.622Z,12.42
2023-04-10T22:30:10.643Z,12.35
2023-04-10T22:32:38.542Z,12.23
2023-04-10T22:35:07.629Z,12.16
2023-04-10T22:37:36.858Z,12.26
2023-04-10T22:40:06.300Z,12.28
2023-04-10T22:42:34.210Z,12.30
2023-04-10T22:45:02.078Z,12.22
2023-04-10T22:47:29.943Z,12.28
2023-04-10T22:49:57.796Z,12.25
2023-04-10T22:52:25.767Z,12.13
2023-04-10T22:54:55.021Z,12.10
2023-04-10T22:57:22.904Z,12.14
2023-04-10T22:59:50.798Z,12.33
2023-04-10T23:02:18.868Z,12.35
2023-04-10T23:04:46.931Z,12.28
2023-04-10T23:07:14.968Z,12.17
2023-04-10T23:09:42.876Z,12.14
2023-04-10T23:12:12.136Z,12.13
2023-04-10T23:14:40.005Z,12.15
2023-04-10T23:17:07.886Z,12.16
2023-04-10T23:19:35.799Z,12.09
2023-04-10T23:22:03.664Z,11.98
2023-04-10T23:24:31.550Z,11.99
2023-04-10T23:26:59.475Z,12.07
2023-04-10T23:29:28.704Z,11.86
2023-04-10T23:31:56.521Z,11.88
2023-04-10T23:34:26.469Z,11.86
2023-04-10T23:36:54.511Z,11.99
2023-04-10T23:39:22.468Z,11.92
2023-04-10T23:41:50.305Z,11.86
2023-04-10T23:44:18.237Z,11.89
2023-04-10T23:46:48.136Z,11.93
2023-04-10T23:49:16.029Z,11.86
2023-04-10T23:51:44.787Z,11.80
2023-04-10T23:54:12.839Z,11.78
2023-04-10T23:56:40.715Z,11.73
2023-04-10T23:59:08.638Z,11.65
